sensor_id;sensor_type;location;lat;lon;timestamp;P1;durP1;ratioP1;P2;durP2;ratioP2
41275;SDS011;27010;47.718;12.912;2023-08-01T00:01:06;2.97;;;2.00;;
41275;SDS011;27010;47.718;12.912;2023-08-01T00:04:08;5.00;;;2.10;;
41275;SDS011;27010;47.718;12.912;2023-08-01T00:07:10;5.07;;;2.50;;
41275;SDS011;27010;47.718;12.912;2023-08-01T00:10:13;2.95;;;1.77;;
41275;SDS011;27010;47.718;12.912;2023-08-01T00:13:15;3.25;;;1.90;;
41275;SDS011;27010;47.718;12.912;2023-08-01T00:16:17;2.45;;;1.90;;
41275;SDS011;27010;47.718;12.912;2023-08-01T00:19:19;4.05;;;1.88;;
41275;SDS011;27010;47.718;12.912;2023-08-01T00:22:21;7.30;;;2.60;;
41275;SDS011;27010;47.718;12.912;2023-08-01T00:25:23;4.50;;;2.33;;
41275;SDS011;27010;47.718;12.912;2023-08-01T00:28:25;6.15;;;2.08;;
41275;SDS011;27010;47.718;12.912;2023-08-01T00:31:28;3.17;;;2.10;;
41275;SDS011;27010;47.718;12.912;2023-08-01T00:34:30;3.50;;;2.10;;
41275;SDS011;27010;47.718;12.912;2023-08-01T00:37:32;3.57;;;2.00;;
41275;SDS011;27010;47.718;12.912;2023-08-01T00:40:34;4.60;;;1.87;;
41275;SDS011;27010;47.718;12.912;2023-08-01T00:43:37;2.33;;;1.70;;
41275;SDS011;27010;47.718;12.912;2023-08-01T00:46:39;2.60;;;2.17;;
41275;SDS011;27010;47.718;12.912;2023-08-01T00:49:42;5.07;;;2.50;;
41275;SDS011;27010;47.718;12.912;2023-08-01T00:52:44;2.75;;;2.05;;
41275;SDS011;27010;47.718;12.912;2023-08-01T00:55:50;2.35;;;2.05;;
41275;SDS011;27010;47.718;12.912;2023-08-01T00:58:54;2.80;;;2.03;;
41275;SDS011;27010;47.718;12.912;2023-08-01T01:01:57;2.75;;;1.88;;
41275;SDS011;27010;47.718;12.912;2023-08-01T01:05:01;3.07;;;1.97;;
41275;SDS011;27010;47.718;12.912;2023-08-01T01:08:08;3.10;;;2.08;;
41275;SDS011;27010;47.718;12.912;2023-08-01T01:11:10;3.53;;;2.33;;
41275;SDS011;27010;47.718;12.912;2023-08-01T01:14:14;3.20;;;2.13;;
41275;SDS011;27010;47.718;12.912;2023-08-01T01:17:16;3.72;;;2.05;;
41275;SDS011;27010;47.718;12.912;2023-08-01T01:20:22;1.90;;;1.77;;
41275;SDS011;27010;47.718;12.912;2023-08-01T01:23:26;2.30;;;2.10;;
41275;SDS011;27010;47.718;12.912;2023-08-01T01:26:29;3.67;;;2.30;;
41275;SDS011;27010;47.718;12.912;2023-08-01T01:29:32;4.10;;;2.10;;
41275;SDS011;27010;47.718;12.912;2023-08-01T01:32:35;5.63;;;1.93;;
41275;SDS011;27010;47.718;12.912;2023-08-01T01:35:37;3.15;;;2.28;;
41275;SDS011;27010;47.718;12.912;2023-08-01T01:38:39;3.67;;;2.30;;
41275;SDS011;27010;47.718;12.912;2023-08-01T01:41:41;8.20;;;2.43;;
41275;SDS011;27010;47.718;12.912;2023-08-01T01:44:43;2.50;;;1.98;;
41275;SDS011;27010;47.718;12.912;2023-08-01T01:47:46;5.85;;;2.38;;
41275;SDS011;27010;47.718;12.912;2023-08-01T01:50:48;3.40;;;2.17;;
41275;SDS011;27010;47.718;12.912;2023-08-01T01:53:50;4.30;;;1.80;;
41275;SDS011;27010;47.718;12.912;2023-08-01T01:56:52;3.28;;;2.30;;
41275;SDS011;27010;47.718;12.912;2023-08-01T01:59:54;4.17;;;2.60;;
41275;SDS011;27010;47.718;12.912;2023-08-01T02:02:56;3.63;;;2.17;;
41275;SDS011;27010;47.718;12.912;2023-08-01T02:05:58;3.20;;;2.20;;
41275;SDS011;27010;47.718;12.912;2023-08-01T02:09:01;3.37;;;2.17;;
41275;SDS011;27010;47.718;12.912;2023-08-01T02:12:04;3.10;;;2.30;;
41275;SDS011;27010;47.718;12.912;2023-08-01T02:15:07;2.60;;;2.40;;
41275;SDS011;27010;47.718;12.912;2023-08-01T02:18:09;2.37;;;1.97;;
41275;SDS011;27010;47.718;12.912;2023-08-01T02:21:12;4.10;;;2.10;;
41275;SDS011;27010;47.718;12.912;2023-08-01T02:24:14;2.57;;;2.00;;
41275;SDS011;27010;47.718;12.912;2023-08-01T02:27:16;3.03;;;2.00;;
41275;SDS011;27010;47.718;12.912;2023-08-01T02:30:18;3.47;;;2.33;;
41275;SDS011;27010;47.718;12.912;2023-08-01T02:33:22;4.23;;;2.23;;
41275;SDS011;27010;47.718;12.912;2023-08-01T02:36:24;2.78;;;2.20;;
41275;SDS011;27010;47.718;12.912;2023-08-01T02:39:26;2.53;;;2.10;;
41275;SDS011;27010;47.718;12.912;2023-08-01T02:42:28;2.65;;;2.20;;
41275;SDS011;27010;47.718;12.912;2023-08-01T02:45:30;3.83;;;2.33;;
41275;SDS011;27010;47.718;12.912;2023-08-01T02:48:32;4.57;;;2.87;;
41275;SDS011;27010;47.718;12.912;2023-08-01T02:51:34;6.50;;;2.93;;
41275;SDS011;27010;47.718;12.912;2023-08-01T02:54:36;3.43;;;2.80;;
41275;SDS011;27010;47.718;12.912;2023-08-01T02:57:38;3.17;;;2.80;;
41275;SDS011;27010;47.718;12.912;2023-08-01T03:00:41;5.83;;;2.87;;
41275;SDS011;27010;47.718;12.912;2023-08-01T03:03:43;4.50;;;2.93;;
41275;SDS011;27010;47.718;12.912;2023-08-01T03:06:45;3.00;;;2.47;;
41275;SDS011;27010;47.718;12.912;2023-08-01T03:09:47;4.80;;;3.00;;
41275;SDS011;27010;47.718;12.912;2023-08-01T03:12:50;5.87;;;2.87;;
41275;SDS011;27010;47.718;12.912;2023-08-01T03:15:52;7.23;;;2.97;;
41275;SDS011;27010;47.718;12.912;2023-08-01T03:18:54;6.87;;;3.23;;
41275;SDS011;27010;47.718;12.912;2023-08-01T03:21:56;6.43;;;3.50;;
41275;SDS011;27010;47.718;12.912;2023-08-01T03:24:59;4.77;;;3.03;;
41275;SDS011;27010;47.718;12.912;2023-08-01T03:28:01;4.10;;;2.87;;
41275;SDS011;27010;47.718;12.912;2023-08-01T03:31:06;6.57;;;3.67;;
41275;SDS011;27010;47.718;12.912;2023-08-01T03:34:08;4.27;;;3.20;;
41275;SDS011;27010;47.718;12.912;2023-08-01T03:37:10;6.17;;;3.10;;
41275;SDS011;27010;47.718;12.912;2023-08-01T03:40:12;2.97;;;2.53;;
41275;SDS011;27010;47.718;12.912;2023-08-01T03:43:14;3.63;;;2.90;;
41275;SDS011;27010;47.718;12.912;2023-08-01T03:46:16;6.33;;;3.03;;
41275;SDS011;27010;47.718;12.912;2023-08-01T03:49:18;7.03;;;3.33;;
41275;SDS011;27010;47.718;12.912;2023-08-01T03:52:20;6.87;;;3.17;;
41275;SDS011;27010;47.718;12.912;2023-08-01T03:55:23;4.27;;;2.90;;
41275;SDS011;27010;47.718;12.912;2023-08-01T03:58:25;6.03;;;3.10;;
41275;SDS011;27010;47.718;12.912;2023-08-01T04:01:27;4.87;;;3.50;;
41275;SDS011;27010;47.718;12.912;2023-08-01T04:04:29;5.53;;;3.27;;
41275;SDS011;27010;47.718;12.912;2023-08-01T04:07:37;4.43;;;3.10;;
41275;SDS011;27010;47.718;12.912;2023-08-01T04:10:40;3.97;;;3.27;;
41275;SDS011;27010;47.718;12.912;2023-08-01T04:13:42;3.87;;;2.83;;
41275;SDS011;27010;47.718;12.912;2023-08-01T04:16:44;5.67;;;3.60;;
41275;SDS011;27010;47.718;12.912;2023-08-01T04:19:46;4.17;;;3.00;;
41275;SDS011;27010;47.718;12.912;2023-08-01T04:22:49;4.83;;;3.43;;
41275;SDS011;27010;47.718;12.912;2023-08-01T04:25:51;5.97;;;3.03;;
41275;SDS011;27010;47.718;12.912;2023-08-01T04:28:53;4.90;;;3.20;;
41275;SDS011;27010;47.718;12.912;2023-08-01T04:31:55;5.10;;;3.47;;
41275;SDS011;27010;47.718;12.912;2023-08-01T04:34:57;4.80;;;2.80;;
41275;SDS011;27010;47.718;12.912;2023-08-01T04:38:00;3.60;;;2.70;;
41275;SDS011;27010;47.718;12.912;2023-08-01T04:41:02;5.77;;;3.40;;
41275;SDS011;27010;47.718;12.912;2023-08-01T04:44:04;4.57;;;3.33;;
41275;SDS011;27010;47.718;12.912;2023-08-01T04:47:06;4.40;;;3.13;;
41275;SDS011;27010;47.718;12.912;2023-08-01T04:50:08;4.43;;;3.00;;
41275;SDS011;27010;47.718;12.912;2023-08-01T04:53:10;4.20;;;3.00;;
41275;SDS011;27010;47.718;12.912;2023-08-01T04:56:13;4.47;;;3.47;;
41275;SDS011;27010;47.718;12.912;2023-08-01T04:59:16;4.77;;;3.30;;
41275;SDS011;27010;47.718;12.912;2023-08-01T05:02:18;4.93;;;3.33;;
41275;SDS011;27010;47.718;12.912;2023-08-01T05:05:20;4.60;;;3.43;;
41275;SDS011;27010;47.718;12.912;2023-08-01T05:08:23;6.17;;;4.00;;
41275;SDS011;27010;47.718;12.912;2023-08-01T05:11:27;4.47;;;3.50;;
41275;SDS011;27010;47.718;12.912;2023-08-01T05:14:34;6.27;;;3.47;;
41275;SDS011;27010;47.718;12.912;2023-08-01T05:17:37;6.87;;;3.37;;
41275;SDS011;27010;47.718;12.912;2023-08-01T05:20:40;5.90;;;3.27;;
41275;SDS011;27010;47.718;12.912;2023-08-01T05:23:41;7.40;;;3.53;;
41275;SDS011;27010;47.718;12.912;2023-08-01T05:26:52;6.10;;;3.83;;
41275;SDS011;27010;47.718;12.912;2023-08-01T05:29:54;6.23;;;3.93;;
41275;SDS011;27010;47.718;12.912;2023-08-01T05:32:57;6.70;;;3.63;;
41275;SDS011;27010;47.718;12.912;2023-08-01T05:35:59;7.43;;;3.43;;
41275;SDS011;27010;47.718;12.912;2023-08-01T05:39:03;5.37;;;3.37;;
41275;SDS011;27010;47.718;12.912;2023-08-01T05:42:05;7.07;;;3.60;;
41275;SDS011;27010;47.718;12.912;2023-08-01T05:45:10;6.03;;;3.60;;
41275;SDS011;27010;47.718;12.912;2023-08-01T05:48:13;7.90;;;3.70;;
41275;SDS011;27010;47.718;12.912;2023-08-01T05:51:16;5.00;;;3.33;;
41275;SDS011;27010;47.718;12.912;2023-08-01T05:54:18;4.33;;;3.20;;
41275;SDS011;27010;47.718;12.912;2023-08-01T05:57:20;4.53;;;2.90;;
41275;SDS011;27010;47.718;12.912;2023-08-01T06:00:22;5.83;;;3.63;;
41275;SDS011;27010;47.718;12.912;2023-08-01T06:03:24;5.53;;;2.97;;
41275;SDS011;27010;47.718;12.912;2023-08-01T06:06:26;5.00;;;3.50;;
41275;SDS011;27010;47.718;12.912;2023-08-01T06:09:28;3.93;;;2.93;;
41275;SDS011;27010;47.718;12.912;2023-08-01T06:12:30;4.07;;;3.40;;
41275;SDS011;27010;47.718;12.912;2023-08-01T06:15:32;4.87;;;3.17;;
41275;SDS011;27010;47.718;12.912;2023-08-01T06:18:36;4.93;;;3.40;;
41275;SDS011;27010;47.718;12.912;2023-08-01T06:21:38;5.83;;;3.70;;
41275;SDS011;27010;47.718;12.912;2023-08-01T06:24:42;3.43;;;2.90;;
41275;SDS011;27010;47.718;12.912;2023-08-01T06:27:44;5.23;;;2.93;;
41275;SDS011;27010;47.718;12.912;2023-08-01T06:30:46;2.60;;;2.40;;
41275;SDS011;27010;47.718;12.912;2023-08-01T06:33:49;5.70;;;3.13;;
41275;SDS011;27010;47.718;12.912;2023-08-01T06:36:51;3.70;;;2.80;;
41275;SDS011;27010;47.718;12.912;2023-08-01T06:39:54;3.63;;;3.23;;
41275;SDS011;27010;47.718;12.912;2023-08-01T06:42:57;4.93;;;3.60;;
41275;SDS011;27010;47.718;12.912;2023-08-01T06:45:59;5.93;;;3.37;;
41275;SDS011;27010;47.718;12.912;2023-08-01T06:49:01;4.60;;;3.50;;
41275;SDS011;27010;47.718;12.912;2023-08-01T06:52:06;4.27;;;3.20;;
41275;SDS011;27010;47.718;12.912;2023-08-01T06:55:08;4.77;;;3.30;;
41275;SDS011;27010;47.718;12.912;2023-08-01T06:58:10;3.80;;;3.07;;
41275;SDS011;27010;47.718;12.912;2023-08-01T07:01:12;5.67;;;3.60;;
41275;SDS011;27010;47.718;12.912;2023-08-01T07:04:14;6.73;;;3.33;;
41275;SDS011;27010;47.718;12.912;2023-08-01T07:07:18;4.57;;;2.80;;
41275;SDS011;27010;47.718;12.912;2023-08-01T07:10:21;4.47;;;3.47;;
41275;SDS011;27010;47.718;12.912;2023-08-01T07:13:26;4.37;;;3.50;;
41275;SDS011;27010;47.718;12.912;2023-08-01T07:16:28;5.33;;;3.60;;
41275;SDS011;27010;47.718;12.912;2023-08-01T07:19:32;4.03;;;3.23;;
41275;SDS011;27010;47.718;12.912;2023-08-01T07:22:35;3.47;;;3.03;;
41275;SDS011;27010;47.718;12.912;2023-08-01T07:25:38;4.70;;;3.03;;
41275;SDS011;27010;47.718;12.912;2023-08-01T07:28:40;4.20;;;3.47;;
41275;SDS011;27010;47.718;12.912;2023-08-01T07:31:42;4.07;;;3.60;;
41275;SDS011;27010;47.718;12.912;2023-08-01T07:34:48;3.40;;;3.10;;
41275;SDS011;27010;47.718;12.912;2023-08-01T07:37:50;5.47;;;3.50;;
41275;SDS011;27010;47.718;12.912;2023-08-01T07:40:52;3.67;;;3.13;;
41275;SDS011;27010;47.718;12.912;2023-08-01T07:43:56;4.00;;;3.20;;
41275;SDS011;27010;47.718;12.912;2023-08-01T07:47:00;4.10;;;3.37;;
41275;SDS011;27010;47.718;12.912;2023-08-01T07:50:02;6.07;;;3.37;;
41275;SDS011;27010;47.718;12.912;2023-08-01T07:53:05;3.87;;;3.47;;
41275;SDS011;27010;47.718;12.912;2023-08-01T07:56:07;5.50;;;3.33;;
41275;SDS011;27010;47.718;12.912;2023-08-01T07:59:10;5.63;;;3.20;;
41275;SDS011;27010;47.718;12.912;2023-08-01T08:02:12;7.03;;;3.60;;
41275;SDS011;27010;47.718;12.912;2023-08-01T08:05:14;4.03;;;3.40;;
41275;SDS011;27010;47.718;12.912;2023-08-01T08:08:16;5.73;;;3.93;;
41275;SDS011;27010;47.718;12.912;2023-08-01T08:11:18;6.13;;;3.77;;
41275;SDS011;27010;47.718;12.912;2023-08-01T08:14:20;5.23;;;3.33;;
41275;SDS011;27010;47.718;12.912;2023-08-01T08:17:23;6.43;;;4.10;;
41275;SDS011;27010;47.718;12.912;2023-08-01T08:20:26;5.07;;;3.43;;
41275;SDS011;27010;47.718;12.912;2023-08-01T08:23:29;8.53;;;3.60;;
41275;SDS011;27010;47.718;12.912;2023-08-01T08:26:31;7.30;;;3.63;;
41275;SDS011;27010;47.718;12.912;2023-08-01T08:29:36;6.50;;;3.70;;
41275;SDS011;27010;47.718;12.912;2023-08-01T08:32:37;7.40;;;3.87;;
41275;SDS011;27010;47.718;12.912;2023-08-01T08:35:40;5.43;;;3.70;;
41275;SDS011;27010;47.718;12.912;2023-08-01T08:38:42;5.33;;;3.63;;
41275;SDS011;27010;47.718;12.912;2023-08-01T08:41:46;8.23;;;3.50;;
41275;SDS011;27010;47.718;12.912;2023-08-01T08:44:54;5.10;;;4.03;;
41275;SDS011;27010;47.718;12.912;2023-08-01T08:47:58;7.83;;;4.00;;
41275;SDS011;27010;47.718;12.912;2023-08-01T08:51:03;5.00;;;3.63;;
41275;SDS011;27010;47.718;12.912;2023-08-01T08:54:08;5.90;;;3.77;;
41275;SDS011;27010;47.718;12.912;2023-08-01T08:57:10;7.13;;;3.70;;
41275;SDS011;27010;47.718;12.912;2023-08-01T09:00:17;7.97;;;3.80;;
41275;SDS011;27010;47.718;12.912;2023-08-01T09:03:26;6.73;;;4.20;;
41275;SDS011;27010;47.718;12.912;2023-08-01T09:06:34;6.10;;;3.80;;
41275;SDS011;27010;47.718;12.912;2023-08-01T09:13:58;5.57;;;4.03;;
41275;SDS011;27010;47.718;12.912;2023-08-01T09:17:05;5.60;;;3.97;;
41275;SDS011;27010;47.718;12.912;2023-08-01T09:20:12;6.87;;;3.17;;
41275;SDS011;27010;47.718;12.912;2023-08-01T09:23:18;5.27;;;3.30;;
41275;SDS011;27010;47.718;12.912;2023-08-01T09:26:22;5.23;;;2.93;;
41275;SDS011;27010;47.718;12.912;2023-08-01T09:29:31;4.70;;;3.60;;
41275;SDS011;27010;47.718;12.912;2023-08-01T09:32:34;6.37;;;3.57;;
41275;SDS011;27010;47.718;12.912;2023-08-01T09:35:39;6.60;;;3.50;;
41275;SDS011;27010;47.718;12.912;2023-08-01T09:38:44;4.90;;;2.97;;
41275;SDS011;27010;47.718;12.912;2023-08-01T09:42:00;3.67;;;3.20;;
41275;SDS011;27010;47.718;12.912;2023-08-01T09:45:06;5.93;;;3.20;;
41275;SDS011;27010;47.718;12.912;2023-08-01T09:48:25;2.90;;;2.50;;
41275;SDS011;27010;47.718;12.912;2023-08-01T09:51:28;4.73;;;2.40;;
41275;SDS011;27010;47.718;12.912;2023-08-01T09:54:37;5.73;;;2.47;;
41275;SDS011;27010;47.718;12.912;2023-08-01T09:57:40;2.70;;;2.27;;
41275;SDS011;27010;47.718;12.912;2023-08-01T10:00:44;2.87;;;2.50;;
41275;SDS011;27010;47.718;12.912;2023-08-01T10:03:50;3.63;;;2.30;;
41275;SDS011;27010;47.718;12.912;2023-08-01T10:06:57;3.40;;;2.60;;
41275;SDS011;27010;47.718;12.912;2023-08-01T10:10:01;3.60;;;2.40;;
41275;SDS011;27010;47.718;12.912;2023-08-01T10:13:03;7.53;;;3.43;;
41275;SDS011;27010;47.718;12.912;2023-08-01T10:16:07;13.93;;;9.10;;
41275;SDS011;27010;47.718;12.912;2023-08-01T10:19:10;3.97;;;2.95;;
41275;SDS011;27010;47.718;12.912;2023-08-01T10:22:14;7.50;;;3.53;;
41275;SDS011;27010;47.718;12.912;2023-08-01T10:25:17;3.63;;;2.67;;
41275;SDS011;27010;47.718;12.912;2023-08-01T10:28:30;4.20;;;2.90;;
41275;SDS011;27010;47.718;12.912;2023-08-01T10:31:33;3.47;;;2.75;;
41275;SDS011;27010;47.718;12.912;2023-08-01T10:34:36;6.70;;;2.97;;
41275;SDS011;27010;47.718;12.912;2023-08-01T10:37:40;3.80;;;2.40;;
41275;SDS011;27010;47.718;12.912;2023-08-01T10:40:43;6.70;;;3.17;;
41275;SDS011;27010;47.718;12.912;2023-08-01T10:43:47;3.80;;;2.73;;
41275;SDS011;27010;47.718;12.912;2023-08-01T10:46:51;3.73;;;3.00;;
41275;SDS011;27010;47.718;12.912;2023-08-01T10:49:59;4.30;;;2.97;;
41275;SDS011;27010;47.718;12.912;2023-08-01T10:53:08;5.20;;;2.93;;
41275;SDS011;27010;47.718;12.912;2023-08-01T10:56:18;4.40;;;3.27;;
41275;SDS011;27010;47.718;12.912;2023-08-01T10:59:21;3.87;;;2.87;;
41275;SDS011;27010;47.718;12.912;2023-08-01T11:02:26;4.93;;;2.77;;
41275;SDS011;27010;47.718;12.912;2023-08-01T11:05:30;4.80;;;2.63;;
41275;SDS011;27010;47.718;12.912;2023-08-01T11:08:39;3.17;;;2.53;;
41275;SDS011;27010;47.718;12.912;2023-08-01T11:11:42;4.67;;;2.77;;
41275;SDS011;27010;47.718;12.912;2023-08-01T11:14:44;3.28;;;2.58;;
41275;SDS011;27010;47.718;12.912;2023-08-01T11:17:47;2.47;;;2.22;;
41275;SDS011;27010;47.718;12.912;2023-08-01T11:20:55;2.70;;;2.30;;
41275;SDS011;27010;47.718;12.912;2023-08-01T11:23:57;4.95;;;2.83;;
41275;SDS011;27010;47.718;12.912;2023-08-01T11:26:59;6.75;;;3.70;;
41275;SDS011;27010;47.718;12.912;2023-08-01T11:30:02;4.72;;;3.17;;
41275;SDS011;27010;47.718;12.912;2023-08-01T11:33:15;2.90;;;2.33;;
41275;SDS011;27010;47.718;12.912;2023-08-01T11:36:19;3.33;;;2.83;;
41275;SDS011;27010;47.718;12.912;2023-08-01T11:39:23;3.30;;;2.58;;
41275;SDS011;27010;47.718;12.912;2023-08-01T11:42:29;3.80;;;3.00;;
41275;SDS011;27010;47.718;12.912;2023-08-01T11:45:33;12.00;;;5.35;;
41275;SDS011;27010;47.718;12.912;2023-08-01T11:48:35;8.43;;;6.17;;
41275;SDS011;27010;47.718;12.912;2023-08-01T11:51:41;5.77;;;5.07;;
41275;SDS011;27010;47.718;12.912;2023-08-01T11:54:45;4.23;;;3.60;;
41275;SDS011;27010;47.718;12.912;2023-08-01T11:57:56;6.95;;;2.78;;
41275;SDS011;27010;47.718;12.912;2023-08-01T12:01:03;3.15;;;2.17;;
41275;SDS011;27010;47.718;12.912;2023-08-01T12:04:06;3.33;;;2.30;;
41275;SDS011;27010;47.718;12.912;2023-08-01T12:07:13;4.20;;;2.90;;
41275;SDS011;27010;47.718;12.912;2023-08-01T12:14:40;3.17;;;2.40;;
41275;SDS011;27010;47.718;12.912;2023-08-01T12:17:44;3.40;;;2.60;;
41275;SDS011;27010;47.718;12.912;2023-08-01T12:20:46;3.47;;;2.97;;
41275;SDS011;27010;47.718;12.912;2023-08-01T12:23:48;5.53;;;2.37;;
41275;SDS011;27010;47.718;12.912;2023-08-01T12:34:59;8.43;;;3.67;;
41275;SDS011;27010;47.718;12.912;2023-08-01T12:38:01;6.97;;;3.13;;
41275;SDS011;27010;47.718;12.912;2023-08-01T12:41:03;4.17;;;2.70;;
41275;SDS011;27010;47.718;12.912;2023-08-01T12:44:06;3.73;;;2.63;;
41275;SDS011;27010;47.718;12.912;2023-08-01T12:47:09;4.20;;;3.20;;
41275;SDS011;27010;47.718;12.912;2023-08-01T12:50:13;6.13;;;3.37;;
41275;SDS011;27010;47.718;12.912;2023-08-01T12:53:18;3.87;;;2.77;;
41275;SDS011;27010;47.718;12.912;2023-08-01T12:56:20;5.53;;;3.33;;
41275;SDS011;27010;47.718;12.912;2023-08-01T12:59:22;3.97;;;2.50;;
41275;SDS011;27010;47.718;12.912;2023-08-01T13:02:24;3.23;;;2.60;;
41275;SDS011;27010;47.718;12.912;2023-08-01T13:05:28;3.90;;;2.70;;
41275;SDS011;27010;47.718;12.912;2023-08-01T13:08:30;2.55;;;2.35;;
41275;SDS011;27010;47.718;12.912;2023-08-01T13:11:32;4.47;;;2.55;;
41275;SDS011;27010;47.718;12.912;2023-08-01T13:14:35;4.72;;;2.63;;
41275;SDS011;27010;47.718;12.912;2023-08-01T13:17:38;2.80;;;2.17;;
41275;SDS011;27010;47.718;12.912;2023-08-01T13:20:40;4.05;;;2.10;;
41275;SDS011;27010;47.718;12.912;2023-08-01T13:23:42;2.85;;;2.05;;
41275;SDS011;27010;47.718;12.912;2023-08-01T13:26:47;2.40;;;1.70;;
41275;SDS011;27010;47.718;12.912;2023-08-01T13:29:51;2.90;;;2.10;;
41275;SDS011;27010;47.718;12.912;2023-08-01T13:32:56;2.70;;;2.33;;
41275;SDS011;27010;47.718;12.912;2023-08-01T13:36:01;3.03;;;2.10;;
41275;SDS011;27010;47.718;12.912;2023-08-01T13:39:03;2.50;;;2.05;;
41275;SDS011;27010;47.718;12.912;2023-08-01T13:42:05;2.80;;;2.17;;
41275;SDS011;27010;47.718;12.912;2023-08-01T13:45:07;2.60;;;2.13;;
41275;SDS011;27010;47.718;12.912;2023-08-01T13:48:12;3.50;;;2.50;;
41275;SDS011;27010;47.718;12.912;2023-08-01T13:51:15;3.90;;;2.80;;
41275;SDS011;27010;47.718;12.912;2023-08-01T13:54:18;4.22;;;3.10;;
41275;SDS011;27010;47.718;12.912;2023-08-01T13:57:22;5.63;;;3.45;;
41275;SDS011;27010;47.718;12.912;2023-08-01T14:00:25;3.28;;;2.45;;
41275;SDS011;27010;47.718;12.912;2023-08-01T14:03:27;4.35;;;2.42;;
41275;SDS011;27010;47.718;12.912;2023-08-01T14:06:29;2.30;;;2.10;;
41275;SDS011;27010;47.718;12.912;2023-08-01T14:09:32;3.47;;;2.08;;
41275;SDS011;27010;47.718;12.912;2023-08-01T14:12:37;3.22;;;1.80;;
41275;SDS011;27010;47.718;12.912;2023-08-01T14:15:40;3.95;;;1.92;;
41275;SDS011;27010;47.718;12.912;2023-08-01T14:18:43;2.90;;;2.42;;
41275;SDS011;27010;47.718;12.912;2023-08-01T14:21:45;4.35;;;2.60;;
41275;SDS011;27010;47.718;12.912;2023-08-01T14:24:48;3.20;;;2.13;;
41275;SDS011;27010;47.718;12.912;2023-08-01T14:27:53;4.47;;;2.97;;
41275;SDS011;27010;47.718;12.912;2023-08-01T14:30:55;2.58;;;2.30;;
41275;SDS011;27010;47.718;12.912;2023-08-01T14:34:01;2.63;;;1.90;;
41275;SDS011;27010;47.718;12.912;2023-08-01T14:37:05;2.75;;;2.28;;
41275;SDS011;27010;47.718;12.912;2023-08-01T14:40:07;2.13;;;1.80;;
41275;SDS011;27010;47.718;12.912;2023-08-01T14:43:12;2.63;;;1.75;;
41275;SDS011;27010;47.718;12.912;2023-08-01T14:46:19;2.72;;;1.90;;
41275;SDS011;27010;47.718;12.912;2023-08-01T14:49:27;2.95;;;2.45;;
41275;SDS011;27010;47.718;12.912;2023-08-01T14:52:31;3.88;;;1.88;;
41275;SDS011;27010;47.718;12.912;2023-08-01T14:55:39;2.55;;;1.75;;
41275;SDS011;27010;47.718;12.912;2023-08-01T14:58:47;4.15;;;1.80;;
41275;SDS011;27010;47.718;12.912;2023-08-01T15:01:50;5.40;;;2.60;;
41275;SDS011;27010;47.718;12.912;2023-08-01T15:04:55;2.40;;;2.20;;
41275;SDS011;27010;47.718;12.912;2023-08-01T15:07:58;3.08;;;1.65;;
41275;SDS011;27010;47.718;12.912;2023-08-01T15:11:09;4.15;;;1.98;;
41275;SDS011;27010;47.718;12.912;2023-08-01T15:14:14;2.08;;;1.80;;
41275;SDS011;27010;47.718;12.912;2023-08-01T15:17:16;5.35;;;1.98;;
41275;SDS011;27010;47.718;12.912;2023-08-01T15:20:23;4.13;;;2.03;;
41275;SDS011;27010;47.718;12.912;2023-08-01T15:23:25;3.03;;;2.10;;
41275;SDS011;27010;47.718;12.912;2023-08-01T15:26:27;3.10;;;1.85;;
41275;SDS011;27010;47.718;12.912;2023-08-01T15:29:33;2.17;;;1.70;;
41275;SDS011;27010;47.718;12.912;2023-08-01T15:32:36;2.20;;;1.70;;
41275;SDS011;27010;47.718;12.912;2023-08-01T15:35:38;4.03;;;2.40;;
41275;SDS011;27010;47.718;12.912;2023-08-01T15:38:42;2.38;;;1.88;;
41275;SDS011;27010;47.718;12.912;2023-08-01T15:41:44;3.85;;;2.38;;
41275;SDS011;27010;47.718;12.912;2023-08-01T15:44:46;3.85;;;2.08;;
41275;SDS011;27010;47.718;12.912;2023-08-01T15:47:49;3.58;;;1.85;;
41275;SDS011;27010;47.718;12.912;2023-08-01T15:50:52;2.15;;;1.85;;
41275;SDS011;27010;47.718;12.912;2023-08-01T15:53:54;2.05;;;1.80;;
41275;SDS011;27010;47.718;12.912;2023-08-01T15:56:56;2.15;;;1.52;;
41275;SDS011;27010;47.718;12.912;2023-08-01T15:59:58;1.30;;;1.20;;
41275;SDS011;27010;47.718;12.912;2023-08-01T16:03:02;3.10;;;1.50;;
41275;SDS011;27010;47.718;12.912;2023-08-01T16:06:08;1.88;;;1.27;;
41275;SDS011;27010;47.718;12.912;2023-08-01T16:09:11;2.25;;;1.45;;
41275;SDS011;27010;47.718;12.912;2023-08-01T16:12:14;1.50;;;1.20;;
41275;SDS011;27010;47.718;12.912;2023-08-01T16:15:16;2.00;;;1.50;;
41275;SDS011;27010;47.718;12.912;2023-08-01T16:18:19;1.73;;;1.48;;
41275;SDS011;27010;47.718;12.912;2023-08-01T16:21:21;2.50;;;1.20;;
41275;SDS011;27010;47.718;12.912;2023-08-01T16:24:24;2.28;;;1.50;;
41275;SDS011;27010;47.718;12.912;2023-08-01T16:27:27;1.73;;;1.42;;
41275;SDS011;27010;47.718;12.912;2023-08-01T16:30:30;1.88;;;1.52;;
41275;SDS011;27010;47.718;12.912;2023-08-01T16:33:35;1.40;;;1.20;;
41275;SDS011;27010;47.718;12.912;2023-08-01T16:36:37;1.80;;;1.40;;
41275;SDS011;27010;47.718;12.912;2023-08-01T16:39:40;3.55;;;1.88;;
41275;SDS011;27010;47.718;12.912;2023-08-01T16:42:43;4.00;;;2.35;;
41275;SDS011;27010;47.718;12.912;2023-08-01T16:45:46;1.95;;;1.60;;
41275;SDS011;27010;47.718;12.912;2023-08-01T16:48:48;2.17;;;1.77;;
41275;SDS011;27010;47.718;12.912;2023-08-01T16:51:50;2.42;;;1.55;;
41275;SDS011;27010;47.718;12.912;2023-08-01T16:54:53;3.25;;;1.60;;
41275;SDS011;27010;47.718;12.912;2023-08-01T16:57:55;2.00;;;1.33;;
41275;SDS011;27010;47.718;12.912;2023-08-01T17:01:00;3.70;;;1.48;;
41275;SDS011;27010;47.718;12.912;2023-08-01T17:04:06;2.10;;;1.45;;
41275;SDS011;27010;47.718;12.912;2023-08-01T17:07:13;2.53;;;1.20;;
41275;SDS011;27010;47.718;12.912;2023-08-01T17:10:18;2.88;;;1.50;;
41275;SDS011;27010;47.718;12.912;2023-08-01T17:13:23;1.70;;;1.35;;
41275;SDS011;27010;47.718;12.912;2023-08-01T17:16:26;2.97;;;1.85;;
41275;SDS011;27010;47.718;12.912;2023-08-01T17:19:28;9.35;;;4.25;;
41275;SDS011;27010;47.718;12.912;2023-08-01T17:22:33;2.53;;;1.80;;
41275;SDS011;27010;47.718;12.912;2023-08-01T17:25:37;1.90;;;1.30;;
41275;SDS011;27010;47.718;12.912;2023-08-01T17:28:39;2.58;;;1.98;;
41275;SDS011;27010;47.718;12.912;2023-08-01T17:31:41;4.00;;;2.20;;
41275;SDS011;27010;47.718;12.912;2023-08-01T17:34:44;3.28;;;2.00;;
41275;SDS011;27010;47.718;12.912;2023-08-01T17:37:47;2.03;;;1.70;;
41275;SDS011;27010;47.718;12.912;2023-08-01T17:40:50;3.90;;;1.73;;
41275;SDS011;27010;47.718;12.912;2023-08-01T17:43:54;3.25;;;2.72;;
41275;SDS011;27010;47.718;12.912;2023-08-01T17:47:00;5.05;;;2.08;;
41275;SDS011;27010;47.718;12.912;2023-08-01T17:50:03;6.45;;;1.63;;
41275;SDS011;27010;47.718;12.912;2023-08-01T17:53:07;2.30;;;1.52;;
41275;SDS011;27010;47.718;12.912;2023-08-01T17:56:10;2.28;;;1.30;;
41275;SDS011;27010;47.718;12.912;2023-08-01T17:59:13;3.97;;;1.50;;
41275;SDS011;27010;47.718;12.912;2023-08-01T18:02:17;2.33;;;1.35;;
41275;SDS011;27010;47.718;12.912;2023-08-01T18:05:21;5.57;;;1.65;;
41275;SDS011;27010;47.718;12.912;2023-08-01T18:08:25;2.47;;;1.60;;
41275;SDS011;27010;47.718;12.912;2023-08-01T18:11:30;2.75;;;1.20;;
41275;SDS011;27010;47.718;12.912;2023-08-01T18:14:36;2.00;;;1.30;;
41275;SDS011;27010;47.718;12.912;2023-08-01T18:17:39;1.88;;;1.30;;
41275;SDS011;27010;47.718;12.912;2023-08-01T18:20:42;4.38;;;1.52;;
41275;SDS011;27010;47.718;12.912;2023-08-01T18:23:44;2.63;;;1.67;;